Data for 09/16/2015

Time Sea-Level Adjusted Pressure Absolute Pressure Temperature Relative Humidity Dew Point   
(mb) (inHg) (mb) (inHg) (C) (F) (%) (C) (F)
00:05 1011 29.85 840 24.81 8.6 47.6 82 5.7 42.2
00:10 1011 29.85 840 24.81 8.7 47.7 82 5.8 42.5
00:15 1011 29.85 840 24.81 8.7 47.6 81 5.7 42.3
00:20 1011 29.85 840 24.81 8.8 47.9 81 5.7 42.3
00:25 1011 29.85 840 24.81 9 48.2 79 5.6 42.2
00:30 1011 29.85 840 24.81 9.4 48.8 78 5.7 42.3
00:35 1011 29.85 840 24.81 9.6 49.3 77 5.8 42.5
00:40 1011 29.85 840 24.81 9.7 49.4 77 5.9 42.6
00:45 1011 29.85 840 24.81 9.6 49.4 78 5.9 42.7
00:50 1011 29.85 840 24.81 9.6 49.3 77 5.8 42.4
00:55 1011 29.85 840 24.81 9.6 49.3 78 5.9 42.7
01:00 1011 29.85 840 24.81 9.5 49.1 78 5.8 42.4
01:05 1011 29.85 840 24.81 9.5 49.2 77 5.8 42.4
01:10 1011 29.85 840 24.81 9.5 49.1 79 6.1 43
01:15 1011 29.85 840 24.81 9 48.2 84 6.5 43.7
01:20 1011 29.85 840 24.81 8.4 47.2 87 6.4 43.6
01:25 1011 29.85 840 24.81 8.1 46.6 89 6.4 43.5
01:30 1011 29.85 840 24.81 7.8 46 90 6.2 43.2
01:35 1011 29.85 840 24.81 7.7 45.8 90 6.1 43
01:40 1011 29.85 840 24.81 7.7 45.8 90 6.1 43.1
01:45 1011 29.85 840 24.81 7.7 45.8 90 6.1 43
01:50 1010 29.83 840 24.81 7.6 45.7 90 6.1 42.9
01:55 1011 29.85 840 24.81 7.7 45.8 89 6 42.8
02:00 1010 29.83 840 24.81 7.7 45.8 89 6 42.8
02:05 1010 29.83 840 24.81 7.7 45.9 89 6 42.8
02:10 1010 29.83 840 24.81 7.7 45.9 89 6 42.7
02:15 1011 29.85 840 24.81 7.8 46 88 5.9 42.7
02:20 1011 29.85 840 24.81 7.8 46 88 6 42.7
02:25 1011 29.85 840 24.81 7.8 46.1 88 6 42.8
02:30 1011 29.85 840 24.81 7.9 46.1 88 5.9 42.7
02:35 1011 29.85 840 24.81 7.8 46.1 88 5.9 42.6
02:40 1011 29.85 840 24.81 7.8 46 88 5.9 42.7
02:45 1011 29.85 840 24.81 7.7 45.9 88 5.9 42.6
02:50 1011 29.85 840 24.81 7.7 45.9 89 6 42.7
02:55 1011 29.85 840 24.81 7.8 46 88 5.9 42.7
03:00 1011 29.85 840 24.81 7.8 46 89 6 42.8
03:05 1011 29.85 840 24.81 7.8 46.1 88 6 42.8
03:10 1011 29.85 840 24.81 7.9 46.2 88 6.1 43
03:15 1011 29.85 840 24.81 7.9 46.3 88 6.1 43
03:20 1011 29.85 840 24.81 8 46.4 89 6.2 43.2
03:25 1011 29.85 840 24.81 8 46.4 89 6.3 43.3
03:30 1011 29.85 841 24.83 8 46.5 89 6.4 43.5
03:35 1011 29.85 840 24.81 8 46.5 90 6.5 43.6
03:40 1011 29.85 840 24.81 8 46.5 90 6.5 43.8
03:45 1011 29.85 840 24.81 8 46.3 91 6.5 43.8
03:50 1011 29.85 840 24.81 7.9 46.3 91 6.5 43.7
03:55 1011 29.85 840 24.81 7.9 46.1 91 6.5 43.7
04:00 1011 29.85 840 24.81 7.8 46.1 91 6.5 43.6
04:05 1011 29.85 840 24.81 7.8 46 91 6.5 43.7
04:10 1011 29.85 840 24.81 7.8 46.1 91 6.5 43.7
04:15 1011 29.85 840 24.81 7.8 46 91 6.5 43.6
04:20 1011 29.85 840 24.81 7.8 46 91 6.5 43.6
04:25 1011 29.85 840 24.81 7.7 45.9 91 6.4 43.6
04:30 1011 29.85 840 24.81 7.7 45.9 92 6.4 43.6
04:35 1011 29.85 840 24.81 7.7 45.8 92 6.4 43.5
04:40 1011 29.85 840 24.81 7.6 45.7 92 6.3 43.4
04:45 1011 29.85 840 24.81 7.6 45.7 92 6.4 43.4
04:50 1011 29.85 840 24.81 7.5 45.5 92 6.2 43.2
04:55 1011 29.85 840 24.81 7.4 45.3 92 6.1 43
05:00 1010 29.83 840 24.81 7.3 45.1 92 6 42.8
05:05 1011 29.85 840 24.81 7.2 44.9 92 6 42.8
05:10 1011 29.85 840 24.81 7.1 44.8 92 5.9 42.6
05:15 1011 29.85 840 24.81 7 44.5 92 5.8 42.4
05:20 1011 29.85 840 24.81 6.9 44.4 92 5.7 42.3
05:25 1011 29.85 840 24.81 6.8 44.3 92 5.7 42.3
05:30 1011 29.85 840 24.81 6.8 44.3 92 5.7 42.2
05:35 1011 29.85 840 24.81 6.9 44.4 93 5.7 42.3
05:40 1011 29.85 840 24.81 6.9 44.4 93 5.8 42.4
05:45 1011 29.85 840 24.81 6.9 44.4 93 5.8 42.4
05:50 1011 29.85 840 24.81 7 44.5 93 5.9 42.6
05:55 1011 29.85 840 24.81 7 44.6 93 5.9 42.6
06:00 1011 29.85 840 24.81 7 44.6 93 5.9 42.6
06:05 1011 29.85 840 24.81 6.8 44.3 92 5.7 42.2
06:10 1011 29.85 840 24.81 6.7 44.1 92 5.5 41.9
06:15 1011 29.85 841 24.83 6.7 44 92 5.4 41.8
06:20 1011 29.85 841 24.83 6.7 44 91 5.4 41.6
06:25 1012 29.88 841 24.83 6.7 44 91 5.3 41.6
06:30 1012 29.88 841 24.83 6.6 43.9 92 5.4 41.7
06:35 1012 29.88 841 24.83 6.6 43.9 92 5.4 41.6
06:40 1012 29.88 841 24.83 6.6 43.9 92 5.4 41.6
06:45 1012 29.88 841 24.83 6.6 43.9 92 5.3 41.6
06:50 1012 29.88 841 24.83 6.6 43.9 92 5.3 41.6
06:55 1012 29.88 841 24.83 6.7 44 92 5.4 41.8
07:00 1012 29.88 842 24.86 6.7 44.1 92 5.5 41.9
07:05 1012 29.88 842 24.86 6.7 44.1 92 5.5 41.8
07:10 1012 29.88 842 24.86 6.7 44.1 91 5.4 41.6
07:15 1013 29.91 842 24.86 6.7 44.1 91 5.3 41.6
07:20 1013 29.91 842 24.86 6.7 44.1 90 5.3 41.5
07:25 1013 29.91 842 24.86 6.7 44.1 90 5.2 41.3
07:30 1013 29.91 842 24.86 6.8 44.2 90 5.3 41.5
07:35 1013 29.91 842 24.86 6.5 43.7 88 4.7 40.5
07:40 1013 29.91 842 24.86 6.2 43.2 86 4.1 39.3
07:45 1012 29.88 842 24.86 6.2 43.2 85 3.9 39
07:50 1012 29.88 842 24.86 6.3 43.3 85 4 39.2
07:55 1012 29.88 842 24.86 6.3 43.4 84 3.8 38.9
08:00 1012 29.88 841 24.83 6.4 43.6 85 4.1 39.3
08:05 1012 29.88 841 24.83 6.5 43.8 83 3.9 39
08:10 1012 29.88 841 24.83 6.5 43.7 83 3.9 39
08:15 1012 29.88 841 24.83 6.5 43.7 83 3.9 39
08:20 1012 29.88 841 24.83 6.5 43.7 85 4.2 39.5
08:25 1012 29.88 841 24.83 6.4 43.6 83 3.7 38.7
08:30 1012 29.88 842 24.86 6.4 43.6 83 3.8 38.8
08:35 1012 29.88 842 24.86 6.4 43.6 81 3.4 38.2
08:40 1012 29.88 841 24.83 6.4 43.6 80 3.3 38
08:45 1012 29.88 841 24.83 6.5 43.7 80 3.3 38
08:50 1012 29.88 841 24.83 6.5 43.7 81 3.5 38.3
08:55 1012 29.88 841 24.83 6.5 43.8 81 3.5 38.3
09:00 1012 29.88 841 24.83 6.6 43.8 81 3.5 38.3
09:05 1012 29.88 841 24.83 6.6 43.9 81 3.6 38.6
09:10 1012 29.88 842 24.86 6.6 43.9 81 3.6 38.6
09:15 1013 29.91 842 24.86 6.8 44.2 81 3.7 38.6
09:20 1013 29.91 842 24.86 6.9 44.4 81 3.8 38.8
09:25 1013 29.91 842 24.86 6.9 44.5 80 3.8 38.8
09:30 1013 29.91 842 24.86 7 44.5 79 3.6 38.4
09:35 1013 29.91 842 24.86 7 44.6 79 3.6 38.5
09:40 1013 29.91 842 24.86 7 44.6 82 4.1 39.4
09:45 1013 29.91 842 24.86 6.9 44.4 81 3.8 38.8
09:50 1013 29.91 842 24.86 6.7 44.1 84 4.2 39.6
09:55 1013 29.91 842 24.86 6.7 44.1 81 3.7 38.7
10:00 1013 29.91 842 24.86 6.5 43.7 82 3.6 38.5
10:05 1013 29.91 842 24.86 6.4 43.5 83 3.8 38.8
10:10 1013 29.91 842 24.86 6.5 43.7 83 3.8 38.8
10:15 1013 29.91 842 24.86 6.6 43.8 82 3.7 38.7
10:20 1013 29.91 842 24.86 6.7 44.1 81 3.7 38.6
10:25 1013 29.91 842 24.86 7 44.5 81 4 39.2
10:30 1013 29.91 842 24.86 7 44.7 83 4.3 39.8
10:35 1013 29.91 842 24.86 7 44.6 83 4.4 39.9
10:40 1013 29.91 842 24.86 6.9 44.5 83 4.3 39.7
10:45 1013 29.91 842 24.86 7 44.7 85 4.7 40.5
10:50 1012 29.88 842 24.86 7.1 44.7 84 4.6 40.2
10:55 1012 29.88 842 24.86 7.3 45.1 82 4.4 40
11:00 1013 29.91 842 24.86 7.5 45.4 83 4.7 40.5
11:05 1013 29.91 842 24.86 7.6 45.7 80 4.4 39.9
11:10 1013 29.91 842 24.86 7.7 45.8 82 4.7 40.5
11:15 1013 29.91 842 24.86 7.7 45.9 80 4.5 40.1
11:20 1013 29.91 842 24.86 7.8 46 79 4.4 39.9
11:25 1013 29.91 842 24.86 8 46.3 80 4.7 40.5
11:30 1013 29.91 842 24.86 8.1 46.6 81 5 41
11:35 1013 29.91 842 24.86 8.2 46.7 80 4.9 40.9
11:40 1013 29.91 842 24.86 8.1 46.6 79 4.7 40.4
11:45 1013 29.91 842 24.86 8.3 46.9 78 4.7 40.5
11:50 1013 29.91 842 24.86 8.2 46.8 80 5.1 41.1
11:55 1013 29.91 842 24.86 8.4 47 76 4.4 40
12:00 1013 29.91 842 24.86 8.6 47.4 79 5.1 41.2
12:05 1013 29.91 842 24.86 8.8 47.8 76 4.8 40.7
12:10 1013 29.91 842 24.86 9 48.1 76 4.9 40.8
12:15 1013 29.91 842 24.86 9.1 48.3 73 4.5 40.2
12:20 1013 29.91 842 24.86 9 48.2 77 5.3 41.5
12:25 1013 29.91 842 24.86 9 48.1 75 4.9 40.8
12:30 1013 29.91 842 24.86 8.8 47.8 76 4.7 40.5
12:35 1013 29.91 842 24.86 8.5 47.3 79 5.1 41.2
12:40 1013 29.91 842 24.86 8.4 47.1 78 4.8 40.6
12:45 1013 29.91 842 24.86 8.5 47.3 76 4.6 40.3
12:50 1013 29.91 842 24.86 8.5 47.3 79 5 41.1
12:55 1013 29.91 842 24.86 8.3 46.9 81 5.1 41.2
13:00 1013 29.91 842 24.86 8 46.4 83 5.3 41.5
13:05 1013 29.91 842 24.86 8.1 46.5 82 5.2 41.4
13:10 1013 29.91 842 24.86 8.1 46.7 83 5.5 41.9
13:15 1013 29.91 842 24.86 8.2 46.7 81 5.2 41.3
13:20 1013 29.91 842 24.86 8.2 46.8 83 5.5 42
13:25 1013 29.91 842 24.86 8.5 47.2 80 5.2 41.4
13:30 1013 29.91 842 24.86 8.9 48 73 4.3 39.7
13:35 1013 29.91 842 24.86 9.3 48.7 70 4.1 39.4
13:40 1013 29.91 842 24.86 9.3 48.8 73 4.7 40.4
13:45 1013 29.91 843 24.89 9.1 48.3 76 5.1 41.3
13:50 1013 29.91 843 24.89 9 48.2 77 5.2 41.4
13:55 1013 29.91 843 24.89 9.2 48.5 73 4.7 40.4
14:00 1014 29.94 843 24.89 9.3 48.7 74 4.9 40.8
14:05 1013 29.91 843 24.89 9.2 48.5 72 4.4 39.9
14:10 1013 29.91 843 24.89 9.1 48.3 73 4.5 40.2
14:15 1014 29.94 843 24.89 9.1 48.4 74 4.7 40.5
14:20 1014 29.94 843 24.89 9.2 48.5 73 4.5 40.1
14:25 1014 29.94 843 24.89 9.3 48.8 71 4.3 39.8
14:30 1014 29.94 843 24.89 9.4 48.9 69 4.1 39.4
14:35 1014 29.94 843 24.89 9.4 48.8 70 4.2 39.5
14:40 1014 29.94 844 24.92 9.3 48.7 73 4.7 40.5
14:45 1014 29.94 844 24.92 8.4 47.2 78 4.9 40.8
14:50 1015 29.97 844 24.92 7 44.5 83 4.3 39.8
14:55 1015 29.97 844 24.92 6.5 43.7 85 4.2 39.6
15:00 1015 29.97 844 24.92 6.3 43.3 87 4.3 39.8
15:05 1015 29.97 844 24.92 6.2 43.2 89 4.5 40
15:10 1015 29.97 845 24.95 6.1 43 89 4.5 40.1
15:15 1015 29.97 845 24.95 6.1 42.9 89 4.5 40
15:20 1016 30 845 24.95 6.1 42.9 90 4.6 40.2
15:25 1016 30 845 24.95 6.2 43.1 90 4.6 40.3
15:30 1016 30 845 24.95 6.3 43.4 90 4.8 40.6
15:35 1016 30 845 24.95 6.4 43.5 89 4.7 40.5
15:40 1016 30 845 24.95 6.2 43.2 90 4.6 40.3
15:45 1016 30 845 24.95 6.1 43 90 4.6 40.3
15:50 1016 30 845 24.95 6.3 43.3 90 4.7 40.4
15:55 1016 30 845 24.95 6.3 43.3 90 4.8 40.6
16:00 1016 30 845 24.95 6.4 43.5 90 4.9 40.8
16:05 1016 30 845 24.95 6.8 44.2 89 5.1 41.2
16:10 1016 30 845 24.95 6.9 44.4 86 4.7 40.5
16:15 1016 30 845 24.95 6.8 44.3 87 4.8 40.7
16:20 1016 30 845 24.95 7.2 45 85 4.9 40.9
16:25 1016 30 845 24.95 8.4 47.1 79 5 40.9
16:30 1016 30 845 24.95 8.4 47.2 81 5.4 41.7
16:35 1016 30 845 24.95 7.7 45.8 83 5 41
16:40 1016 30 845 24.95 7.1 44.8 87 5.1 41.2
16:45 1016 30 845 24.95 7.2 44.9 86 5 41
16:50 1016 30 845 24.95 7.5 45.5 85 5.1 41.2
16:55 1016 30 845 24.95 8.1 46.5 81 5 41
17:00 1016 30 845 24.95 7.8 46 82 4.9 40.8
17:05 1016 30 845 24.95 7.7 45.8 83 4.9 40.9
17:10 1016 30 845 24.95 7.8 46 84 5.2 41.4
17:15 1016 30 845 24.95 7.9 46.3 86 5.7 42.3
17:20 1016 30 846 24.98 7.8 46.1 87 5.7 42.3
17:25 1016 30 846 24.98 7.9 46.2 86 5.7 42.2
17:30 1016 30 846 24.98 7.8 46 87 5.7 42.3
17:35 1017 30.03 846 24.98 7.7 45.8 86 5.5 41.9
17:40 1017 30.03 846 24.98 7.6 45.6 87 5.6 42
17:45 1017 30.03 846 24.98 7.6 45.6 85 5.3 41.5
17:50 1017 30.03 846 24.98 7.6 45.6 85 5.3 41.5
17:55 1017 30.03 846 24.98 7.6 45.6 86 5.4 41.8
18:00 1017 30.03 846 24.98 7.5 45.5 86 5.4 41.7
18:05 1017 30.03 846 24.98 7.4 45.4 88 5.5 42
18:10 1017 30.03 846 24.98 7.4 45.4 87 5.4 41.8
18:15 1017 30.03 846 24.98 7.5 45.5 88 5.6 42
18:20 1017 30.03 846 24.98 7.4 45.4 85 5.1 41.3
18:25 1017 30.03 846 24.98 7.3 45.1 85 5 41
18:30 1017 30.03 846 24.98 7.2 44.9 85 4.8 40.7
18:35 1017 30.03 846 24.98 7.2 44.9 85 4.9 40.8
18:40 1017 30.03 846 24.98 7.1 44.8 84 4.6 40.3
18:45 1017 30.03 846 24.98 7.1 44.7 84 4.6 40.3
18:50 1017 30.03 846 24.98 7.1 44.7 82 4.3 39.7
18:55 1017 30.03 846 24.98 7.1 44.8 82 4.3 39.8
19:00 1017 30.03 846 24.98 7.1 44.8 85 4.8 40.7
19:05 1017 30.03 846 24.98 7 44.6 86 4.8 40.6
19:10 1017 30.03 846 24.98 7 44.6 87 5 40.9
19:15 1017 30.03 846 24.98 7 44.7 87 5.1 41.2
19:20 1017 30.03 846 24.98 6.9 44.5 87 5 41
19:25 1017 30.03 846 24.98 6.9 44.5 87 4.9 40.8
19:30 1017 30.03 846 24.98 7 44.6 87 5 41
19:35 1017 30.03 847 25.01 6.9 44.5 88 5.1 41.1
19:40 1017 30.03 847 25.01 6.9 44.5 88 5 41.1
19:45 1017 30.03 847 25.01 6.9 44.4 87 4.8 40.7
19:50 1017 30.03 847 25.01 6.8 44.2 87 4.8 40.6
19:55 1017 30.03 847 25.01 6.9 44.4 86 4.8 40.7
20:00 1017 30.03 846 24.98 6.9 44.4 86 4.7 40.5
20:05 1017 30.03 846 24.98 6.8 44.2 87 4.8 40.6
20:10 1017 30.03 847 25.01 6.5 43.7 89 4.8 40.7
20:15 1017 30.03 847 25.01 6.3 43.4 90 4.8 40.6
20:20 1017 30.03 847 25.01 6.2 43.2 90 4.7 40.4
20:25 1017 30.03 847 25.01 6 42.8 90 4.5 40.2
20:30 1017 30.03 847 25.01 5.9 42.6 90 4.4 39.9
20:35 1017 30.03 847 25.01 5.7 42.3 90 4.1 39.5
20:40 1017 30.03 847 25.01 5.7 42.2 89 4 39.1
20:45 1017 30.03 846 24.98 5.7 42.2 88 3.9 39
20:50 1017 30.03 846 24.98 5.7 42.3 87 3.7 38.6
20:55 1017 30.03 846 24.98 5.8 42.5 86 3.7 38.7
21:00 1017 30.03 846 24.98 5.8 42.5 87 3.8 38.8
21:05 1017 30.03 846 24.98 5.8 42.4 87 3.8 38.8
21:10 1017 30.03 846 24.98 5.8 42.4 87 3.7 38.7
21:15 1017 30.03 846 24.98 5.7 42.2 88 3.8 38.8
21:20 1017 30.03 846 24.98 5.5 42 88 3.6 38.6
21:25 1017 30.03 846 24.98 5.4 41.8 87 3.5 38.3
21:30 1017 30.03 846 24.98 5.4 41.8 87 3.4 38.2
21:35 1017 30.03 846 24.98 5.5 41.9 86 3.4 38.1
21:40 1017 30.03 846 24.98 5.7 42.2 85 3.4 38.1
21:45 1017 30.03 846 24.98 5.6 42.1 87 3.6 38.4
21:50 1017 30.03 846 24.98 5.5 41.8 88 3.6 38.4
21:55 1017 30.03 846 24.98 5.3 41.6 88 3.6 38.4
22:00 1017 30.03 846 24.98 5.3 41.5 88 3.5 38.3
22:05 1017 30.03 846 24.98 5.3 41.5 88 3.4 38.2
22:10 1017 30.03 846 24.98 5.3 41.5 88 3.5 38.3
22:15 1017 30.03 846 24.98 5.2 41.3 89 3.5 38.2
22:20 1017 30.03 846 24.98 5.2 41.4 88 3.5 38.2
22:25 1017 30.03 846 24.98 5.3 41.5 88 3.4 38.1
22:30 1017 30.03 846 24.98 5.4 41.7 87 3.4 38.1
22:35 1017 30.03 846 24.98 5.5 41.9 86 3.4 38
22:40 1017 30.03 846 24.98 5.5 41.9 86 3.4 38.1
22:45 1017 30.03 846 24.98 5.5 42 86 3.3 38
22:50 1017 30.03 846 24.98 5.6 42 86 3.4 38.1
22:55 1017 30.03 846 24.98 5.6 42 85 3.3 38
23:00 1017 30.03 846 24.98 5.5 42 86 3.4 38.1
23:05 1017 30.03 846 24.98 5.5 41.9 85 3.2 37.8
23:10 1017 30.03 846 24.98 5.5 41.8 86 3.3 38
23:15 1017 30.03 846 24.98 5.4 41.7 86 3.2 37.8
23:20 1017 30.03 846 24.98 5.4 41.8 85 3.2 37.8
23:25 1017 30.03 846 24.98 5.5 41.9 85 3.2 37.7
23:30 1017 30.03 846 24.98 5.5 41.9 85 3.2 37.7
23:35 1017 30.03 846 24.98 5.5 41.9 83 2.9 37.2
23:40 1017 30.03 846 24.98 5.7 42.2 83 3 37.4
23:45 1017 30.03 846 24.98 5.7 42.2 83 3 37.5
23:50 1017 30.03 846 24.98 5.7 42.3 83 3 37.4
23:55 1017 30.03 846 24.98 5.7 42.2 84 3.2 37.7
24:00 1017 30.03 846 24.98 5.5 41.9 86 3.4 38